Time;durP1;ratioP1;P1;durP2;ratioP2;P2;SDS_P1;SDS_P2;PMS_P1;PMS_P2;Temp;Humidity;BMP_temperature;BMP_pressure;BME280_temperature;BME280_humidity;BME280_pressure;Samples;Min_cycle;Max_cycle;Signal;HPM_P1;HPM_P2
2021/07/31 00:01:54;;;;;;;3.15;2.40;;;22.90;64.40;;;22.62;49.22;94452.41;5020589;28;20200;-82
2021/07/31 00:04:22;;;;;;;3.33;2.30;;;22.80;65.00;;;22.38;50.87;94461.16;5025229;28;20584;-84
2021/07/31 00:06:50;;;;;;;4.57;2.75;;;22.70;65.60;;;22.05;51.70;94461.56;5003901;28;20219;-83
2021/07/31 00:09:17;;;;;;;3.30;2.55;;;22.60;65.50;;;21.69;52.21;94456.41;5027476;28;20686;-83
2021/07/31 00:11:44;;;;;;;2.55;2.35;;;22.30;66.00;;;21.40;52.89;94454.31;5018907;28;20199;-81
2021/07/31 00:14:12;;;;;;;3.53;2.50;;;22.10;66.30;;;21.15;54.01;94455.19;5009761;28;20287;-81
2021/07/31 00:16:39;;;;;;;4.20;2.88;;;21.90;66.40;;;20.93;53.55;94455.47;5017756;28;20207;-81
2021/07/31 00:19:07;;;;;;;3.88;2.45;;;21.70;67.00;;;20.75;54.53;94451.50;4999103;28;20221;-81
2021/07/31 00:21:34;;;;;;;5.28;2.42;;;21.50;67.60;;;20.61;54.33;94449.31;5014602;28;20312;-82
2021/07/31 00:24:01;;;;;;;4.63;2.95;;;21.30;67.90;;;20.44;56.76;94438.13;5020009;28;20189;-80
2021/07/31 00:26:28;;;;;;;3.55;2.75;;;21.20;68.40;;;20.27;57.48;94444.50;5017671;28;20232;-80
2021/07/31 00:28:56;;;;;;;3.80;2.67;;;21.00;69.00;;;20.19;56.28;94446.88;5020335;28;20189;-80
2021/07/31 00:31:23;;;;;;;3.92;2.55;;;20.80;69.20;;;20.08;58.38;94456.72;5000873;28;20258;-80
2021/07/31 00:33:50;;;;;;;2.67;2.30;;;20.60;70.10;;;19.97;58.20;94443.41;5020160;28;20192;-80
2021/07/31 00:36:18;;;;;;;3.42;2.92;;;20.50;70.40;;;19.87;59.53;94456.66;5019430;28;20706;-80
2021/07/31 00:38:46;;;;;;;3.50;2.50;;;20.40;71.00;;;19.74;60.82;94441.16;5009551;28;20263;-81
2021/07/31 00:41:13;;;;;;;4.03;2.50;;;20.30;71.70;;;19.69;59.84;94457.91;5010951;28;20727;-81
2021/07/31 00:43:40;;;;;;;5.82;2.45;;;20.20;71.80;;;19.61;59.76;94463.72;4993404;28;20193;-80
2021/07/31 00:46:08;;;;;;;4.35;2.45;;;20.00;71.80;;;19.57;60.97;94476.75;4996812;28;20228;-79
2021/07/31 00:48:36;;;;;;;4.03;2.60;;;20.00;72.70;;;19.52;60.39;94468.75;5011245;28;20239;-80
2021/07/31 00:51:04;;;;;;;3.15;2.47;;;19.90;72.70;;;19.48;60.64;94462.34;4995399;28;20262;-81
2021/07/31 00:53:33;;;;;;;3.97;2.83;;;19.80;72.90;;;19.43;61.24;94460.47;4995277;28;20597;-82
2021/07/31 00:56:00;;;;;;;2.70;2.50;;;19.80;73.40;;;19.41;60.45;94448.47;5011341;28;20251;-81
2021/07/31 00:58:30;;;;;;;4.78;2.60;;;19.70;73.50;;;19.37;61.06;94434.88;5011413;28;20212;-81
2021/07/31 01:01:04;;;;;;;3.65;2.80;;;19.60;73.80;;;19.32;60.88;94430.38;5027159;28;20700;-81
2021/07/31 01:03:32;;;;;;;3.13;2.40;;;19.60;73.80;;;19.29;60.81;94425.53;5030994;28;20211;-82
2021/07/31 01:05:59;;;;;;;3.33;2.95;;;19.50;73.60;;;19.26;61.42;94422.59;5031046;28;20686;-82
2021/07/31 01:08:27;;;;;;;3.00;2.70;;;19.50;73.80;;;19.24;61.80;94414.06;5015043;28;20215;-82
2021/07/31 01:10:56;;;;;;;4.00;2.55;;;19.50;74.30;;;19.21;61.21;94415.41;5026769;28;20205;-81
2021/07/31 01:13:24;;;;;;;2.95;2.65;;;19.50;74.10;;;19.21;60.78;94410.06;4994880;28;20204;-82
2021/07/31 01:16:02;;;;;;;3.67;2.92;;;19.40;74.00;;;19.20;60.98;94413.81;5011263;28;20244;-82
2021/07/31 01:18:32;;;;;;;3.28;2.60;;;19.40;74.40;;;19.21;61.07;94407.41;5014014;28;20219;-82
2021/07/31 01:21:00;;;;;;;3.13;2.55;;;19.40;74.00;;;19.19;60.25;94398.91;5031118;28;20228;-83
2021/07/31 01:23:28;;;;;;;3.85;3.22;;;19.40;73.90;;;19.22;61.89;94400.25;5028429;28;20693;-83
2021/07/31 01:25:56;;;;;;;3.28;2.90;;;19.40;74.30;;;19.24;61.42;94390.97;5015850;28;20215;-83
2021/07/31 01:28:24;;;;;;;3.95;3.05;;;19.40;74.40;;;19.28;61.16;94388.59;5019017;28;20200;-83
2021/07/31 01:30:52;;;;;;;3.28;2.92;;;19.40;74.30;;;19.31;61.15;94382.72;5018289;28;20216;-83
2021/07/31 01:33:21;;;;;;;3.47;2.92;;;19.50;74.20;;;19.34;61.02;94384.88;5017868;28;20200;-83
2021/07/31 01:35:49;;;;;;;3.88;3.33;;;19.50;74.30;;;19.36;61.47;94383.56;5035076;28;20215;-83
2021/07/31 01:38:30;;;;;;;5.55;2.88;;;19.50;74.30;;;19.39;61.46;94384.91;5006153;28;20208;-82
2021/07/31 01:40:57;;;;;;;3.95;2.95;;;19.60;74.40;;;19.37;62.32;94381.69;5028400;28;20212;-82
2021/07/31 01:43:25;;;;;;;3.08;2.78;;;19.60;74.70;;;19.41;61.89;94395.28;5031588;28;20271;-82
2021/07/31 01:45:52;;;;;;;4.05;2.92;;;19.60;74.40;;;19.42;61.39;94403.00;5026216;28;20216;-83
2021/07/31 01:48:20;;;;;;;4.68;3.20;;;19.60;74.50;;;19.43;61.17;94396.63;4999062;28;20189;-83
2021/07/31 01:50:48;;;;;;;3.10;2.78;;;19.70;74.40;;;19.43;61.00;94393.97;4986174;28;20223;-83
2021/07/31 01:53:15;;;;;;;5.28;2.90;;;19.70;74.30;;;19.45;60.54;94383.84;4999518;28;20208;-82
2021/07/31 01:55:44;;;;;;;6.47;3.40;;;19.70;74.10;;;19.44;60.54;94384.91;4999126;28;20256;-83
2021/07/31 01:58:14;;;;;;;4.25;3.30;;;19.70;74.20;;;19.46;61.46;94376.69;5030405;28;20538;-83
2021/07/31 02:00:53;;;;;;;5.20;3.40;;;19.70;74.50;;;19.46;61.51;94382.81;5013405;28;20811;-83
2021/07/31 02:03:22;;;;;;;3.70;3.22;;;19.70;74.60;;;19.46;61.63;94374.81;5015714;28;20216;-83
2021/07/31 02:06:09;;;;;;;4.13;3.72;;;19.70;74.40;;;19.48;61.93;94380.69;5034060;28;20220;-83
2021/07/31 02:08:37;;;;;;;3.65;3.30;;;19.70;74.40;;;19.48;61.15;94379.88;5034423;28;20203;-83
2021/07/31 02:11:04;;;;;;;4.32;3.90;;;19.70;74.20;;;19.51;61.83;94369.50;5034220;28;20246;-83
2021/07/31 02:13:31;;;;;;;5.82;3.95;;;19.70;74.80;;;19.54;61.33;94378.84;5037876;28;20204;-83
2021/07/31 02:16:04;;;;;;;4.28;3.58;;;19.70;74.70;;;19.55;61.96;94372.44;5018456;28;20231;-83
2021/07/31 02:18:32;;;;;;;4.60;3.70;;;19.80;74.80;;;19.57;61.02;94380.19;5034317;28;20204;-83
2021/07/31 02:21:03;;;;;;;4.78;4.10;;;19.80;74.70;;;19.57;61.33;94372.22;5050746;28;20216;-83
2021/07/31 02:23:50;;;;;;;4.68;3.72;;;19.80;74.70;;;19.57;61.12;94375.66;5046800;28;20200;-84
2021/07/31 02:26:36;;;;;;;4.55;4.05;;;19.80;74.70;;;19.58;61.25;94376.44;5014597;28;20279;-83
2021/07/31 02:29:07;;;;;;;5.35;3.83;;;19.80;74.70;;;19.57;61.29;94362.38;5015349;28;20209;-83
2021/07/31 02:31:38;;;;;;;6.65;4.43;;;19.80;74.80;;;19.55;61.93;94377.78;5017630;28;20200;-84
2021/07/31 02:34:07;;;;;;;4.15;3.75;;;19.80;75.00;;;19.58;61.16;94379.09;5021114;28;20215;-83
2021/07/31 02:36:37;;;;;;;4.72;3.97;;;19.80;74.90;;;19.58;61.33;94371.13;5030837;28;20295;-83
2021/07/31 02:39:24;;;;;;;6.85;4.75;;;19.80;74.90;;;19.57;62.00;94370.34;5017325;28;20208;-83
2021/07/31 02:41:52;;;;;;;4.28;3.88;;;19.80;75.00;;;19.56;61.40;94376.72;5034000;28;20643;-83
2021/07/31 02:44:21;;;;;;;4.47;3.97;;;19.80;74.90;;;19.59;61.33;94375.41;5022709;28;20216;-84
2021/07/31 02:46:51;;;;;;;4.28;3.88;;;19.80;75.00;;;19.58;61.17;94374.59;4998422;28;20193;-83
2021/07/31 02:49:18;;;;;;;5.60;4.63;;;19.80;74.90;;;19.58;61.73;94377.25;5013584;28;20197;-83
2021/07/31 02:51:48;;;;;;;4.28;3.88;;;19.80;75.00;;;19.56;61.14;94370.63;5046502;28;20331;-83
2021/07/31 02:54:30;;;;;;;4.28;3.67;;;19.80;75.10;;;19.56;61.23;94371.41;5000215;28;20560;-83
2021/07/31 02:57:03;;;;;;;5.18;3.75;;;19.70;74.90;;;19.58;61.04;94373.78;5014605;28;20270;-83
2021/07/31 02:59:31;;;;;;;5.15;4.05;;;19.80;74.90;;;19.58;61.29;94374.59;5008373;28;20662;-83
2021/07/31 03:01:58;;;;;;;4.70;4.20;;;19.70;75.00;;;19.58;61.17;94376.44;5013780;28;20223;-83
2021/07/31 03:04:27;;;;;;;4.20;3.80;;;19.70;75.00;;;19.56;61.46;94379.38;4998097;28;20287;-83
2021/07/31 03:07:05;;;;;;;6.70;4.43;;;19.70;75.00;;;19.56;61.01;94379.38;4998651;28;20267;-83
2021/07/31 03:09:33;;;;;;;4.43;4.03;;;19.70;75.00;;;19.53;61.45;94377.25;5031769;28;20215;-83
2021/07/31 03:12:00;;;;;;;5.05;4.30;;;19.70;75.10;;;19.52;61.81;94373.00;5016858;28;20203;-83
2021/07/31 03:14:29;;;;;;;4.70;4.22;;;19.70;75.20;;;19.54;61.24;94376.16;5017569;28;20697;-83
2021/07/31 03:16:57;;;;;;;4.80;3.97;;;19.60;75.10;;;19.51;61.87;94377.50;5023354;28;20263;-83
2021/07/31 03:19:24;;;;;;;4.75;4.10;;;19.70;75.20;;;19.54;61.29;94378.03;4999923;28;20220;-83
2021/07/31 03:21:57;;;;;;;4.65;4.15;;;19.70;75.10;;;19.53;62.31;94382.56;5018416;28;20205;-83
2021/07/31 03:24:44;;;;;;;4.63;4.07;;;19.70;75.60;;;19.52;63.32;94383.63;5026622;28;20574;-83
2021/07/31 03:27:13;;;;;;;4.60;3.75;;;19.70;75.70;;;19.52;62.70;94381.75;5013303;28;20288;-83
2021/07/31 03:30:10;;;;;;;5.30;3.83;;;19.70;75.70;;;19.50;62.52;94381.22;5020195;28;20767;-83
2021/07/31 03:32:43;;;;;;;6.60;4.35;;;19.70;75.70;;;19.52;63.17;94379.09;5033037;28;20203;-83
2021/07/31 03:35:12;;;;;;;5.10;4.05;;;19.70;76.00;;;19.52;62.22;94383.63;5032647;28;20760;-83
2021/07/31 03:37:59;;;;;;;4.22;3.78;;;19.70;75.90;;;19.54;62.00;94389.47;5031116;28;20658;-82
2021/07/31 03:40:27;;;;;;;4.68;4.18;;;19.60;75.60;;;19.55;62.56;94385.75;5022887;28;20224;-83
2021/07/31 03:42:54;;;;;;;4.78;4.15;;;19.60;75.80;;;19.56;62.64;94384.69;5014021;28;20208;-83
2021/07/31 03:45:22;;;;;;;5.40;3.92;;;19.70;75.90;;;19.58;62.33;94387.91;5012998;28;20338;-82
2021/07/31 03:47:49;;;;;;;4.47;4.00;;;19.70;75.80;;;19.58;61.95;94379.94;5029182;28;20188;-83
2021/07/31 03:50:16;;;;;;;4.93;4.40;;;19.60;75.70;;;19.61;62.88;94383.91;5014793;28;20585;-83
2021/07/31 03:52:55;;;;;;;4.25;3.85;;;19.70;76.00;;;19.63;62.19;94371.16;5016959;28;20214;-82
2021/07/31 03:55:23;;;;;;;5.75;4.38;;;19.70;76.00;;;19.65;62.57;94374.34;5032731;28;20220;-83
2021/07/31 03:57:52;;;;;;;4.35;3.92;;;19.70;76.20;;;19.69;61.63;94378.09;5032041;28;20637;-84
2021/07/31 04:00:20;;;;;;;4.18;3.78;;;19.80;76.20;;;19.74;61.57;94378.09;4998688;28;20595;-83
2021/07/31 04:02:54;;;;;;;4.00;3.70;;;19.70;76.10;;;19.79;61.92;94377.31;4997087;28;20200;-82
2021/07/31 04:05:22;;;;;;;5.13;4.32;;;19.70;76.10;;;19.80;62.01;94368.28;4997805;28;20623;-83
2021/07/31 04:08:25;;;;;;;3.85;3.45;;;19.80;76.20;;;19.85;61.66;94365.66;5000062;28;20197;-82
2021/07/31 04:11:11;;;;;;;5.03;3.90;;;19.80;77.00;;;19.89;61.53;94374.69;5016066;28;20226;-83
2021/07/31 04:13:57;;;;;;;4.47;3.97;;;19.80;76.00;;;19.90;62.27;94370.97;5031468;28;20333;-82
2021/07/31 04:16:35;;;;;;;4.63;4.22;;;19.90;76.30;;;19.94;62.00;94373.91;5011686;28;20228;-83
2021/07/31 04:19:02;;;;;;;5.15;4.18;;;19.90;76.40;;;19.94;62.50;94363.25;5023398;28;20545;-83
2021/07/31 04:21:30;;;;;;;4.53;3.85;;;19.90;76.50;;;19.98;61.67;94359.81;4999415;28;20228;-83
2021/07/31 04:23:57;;;;;;;5.15;4.03;;;20.00;76.50;;;20.03;62.20;94372.34;5012587;28;20251;-83
2021/07/31 04:26:24;;;;;;;5.20;4.32;;;20.00;76.50;;;20.09;62.35;94368.63;5000531;28;20209;-83
2021/07/31 04:28:51;;;;;;;4.97;4.32;;;20.00;76.50;;;20.09;61.91;94379.28;5012247;28;20200;-83
2021/07/31 04:31:18;;;;;;;7.45;4.50;;;20.00;76.50;;;20.14;62.15;94373.13;5014662;28;20293;-83
2021/07/31 04:33:45;;;;;;;6.75;4.55;;;20.10;76.50;;;20.15;62.34;94378.22;5015626;28;20641;-83
2021/07/31 04:36:13;;;;;;;4.70;4.10;;;20.10;76.60;;;20.17;62.03;94372.59;5025993;28;20243;-83
2021/07/31 04:38:40;;;;;;;5.80;4.30;;;20.10;76.60;;;20.19;61.80;94380.31;5014867;28;20203;-83
2021/07/31 04:41:08;;;;;;;5.88;4.30;;;20.10;76.50;;;20.21;62.17;94380.88;5015459;28;20240;-83
2021/07/31 04:43:35;;;;;;;5.10;4.20;;;20.20;76.50;;;20.24;62.30;94388.34;5031936;28;20203;-83
2021/07/31 04:46:03;;;;;;;5.35;4.50;;;20.20;76.50;;;20.27;62.17;94382.47;5010448;28;20701;-82
2021/07/31 04:48:30;;;;;;;4.03;3.65;;;20.20;76.50;;;20.30;62.01;94387.28;5010550;28;20292;-83
2021/07/31 04:51:00;;;;;;;5.65;4.50;;;20.20;76.50;;;20.35;61.96;94384.59;5010020;28;20250;-83
2021/07/31 04:53:28;;;;;;;6.28;4.25;;;20.20;76.50;;;20.36;61.88;94386.22;5026416;28;20266;-84
2021/07/31 04:55:57;;;;;;;4.85;4.20;;;20.40;76.60;;;20.40;61.72;94386.47;4996217;28;20585;-84
2021/07/31 04:58:24;;;;;;;4.57;4.10;;;20.30;76.40;;;20.47;61.26;94389.69;5011708;28;20666;-83
2021/07/31 05:00:59;;;;;;;5.05;4.07;;;20.30;76.30;;;20.54;62.05;94389.38;5026634;28;20622;-84
2021/07/31 05:03:28;;;;;;;5.40;4.47;;;20.40;76.50;;;20.59;61.43;94400.03;5025445;28;20228;-84
2021/07/31 05:05:56;;;;;;;5.07;4.22;;;20.40;76.30;;;20.66;61.21;94395.25;5004364;28;20216;-84
2021/07/31 05:08:24;;;;;;;5.03;4.20;;;20.50;76.40;;;20.73;61.04;94389.69;5010754;28;20574;-83
2021/07/31 05:10:52;;;;;;;6.18;4.20;;;20.50;76.30;;;20.79;61.36;94396.59;5010606;28;20216;-83
2021/07/31 05:13:20;;;;;;;5.10;4.25;;;20.60;76.40;;;20.83;61.13;94396.88;5017340;28;20747;-83
2021/07/31 05:15:48;;;;;;;5.07;4.20;;;20.60;76.30;;;20.91;60.74;94393.63;5011467;28;20243;-84
2021/07/31 05:18:16;;;;;;;5.20;4.68;;;20.70;76.30;;;20.96;61.16;94393.63;5011876;28;20695;-83
2021/07/31 05:20:45;;;;;;;4.75;4.32;;;20.70;76.20;;;21.03;60.99;94404.81;5010617;28;20303;-83
2021/07/31 05:23:14;;;;;;;4.85;4.18;;;20.80;76.10;;;21.08;60.66;94396.00;5011594;28;20392;-84
2021/07/31 05:25:45;;;;;;;5.00;4.35;;;20.80;76.20;;;21.14;60.23;94388.78;5011656;28;20254;-83
2021/07/31 05:28:13;;;;;;;5.40;4.75;;;20.90;76.10;;;21.18;60.58;94385.31;5011263;28;20205;-84
2021/07/31 05:30:42;;;;;;;4.97;4.47;;;20.90;76.00;;;21.23;60.52;94392.50;4995137;28;20231;-84
2021/07/31 05:33:10;;;;;;;4.85;3.97;;;21.00;76.00;;;21.35;60.35;94402.84;5022918;28;20287;-82
2021/07/31 05:35:37;;;;;;;4.25;3.85;;;21.00;76.00;;;21.46;60.36;94406.28;5027453;28;20643;-84
2021/07/31 05:38:04;;;;;;;5.35;4.63;;;21.10;76.00;;;21.52;60.02;94403.34;5028163;28;20204;-84
2021/07/31 05:40:31;;;;;;;5.32;4.63;;;21.20;76.10;;;21.61;60.12;94398.25;5012737;28;20572;-84
2021/07/31 05:42:59;;;;;;;5.30;4.30;;;21.20;75.90;;;21.70;60.25;94395.81;5002559;28;20205;-82
2021/07/31 05:45:27;;;;;;;5.15;4.60;;;21.30;76.00;;;21.76;59.77;94402.72;5013889;28;20236;-84
2021/07/31 05:47:57;;;;;;;5.53;5.03;;;21.40;75.90;;;21.88;60.01;94395.16;4992803;28;20241;-85
2021/07/31 05:50:24;;;;;;;5.13;4.45;;;21.50;75.90;;;21.95;59.54;94410.91;4993342;28;20771;-85
2021/07/31 05:52:52;;;;;;;4.82;4.43;;;21.60;75.90;;;22.00;59.49;94405.50;5010132;28;20254;-85
2021/07/31 05:55:20;;;;;;;4.40;4.00;;;21.60;75.80;;;22.13;59.74;94411.31;5001746;28;20209;-84
2021/07/31 05:57:48;;;;;;;4.82;4.40;;;21.70;75.90;;;22.25;59.86;94403.75;4994872;28;20685;-84
2021/07/31 06:00:15;;;;;;;5.20;4.70;;;21.80;76.00;;;22.38;59.47;94407.69;5011087;28;20220;-85
2021/07/31 06:02:43;;;;;;;5.13;4.63;;;21.90;75.90;;;22.48;59.77;94391.56;5021538;28;20663;-85
2021/07/31 06:05:11;;;;;;;5.68;4.97;;;22.00;75.90;;;22.58;58.85;94401.38;4979440;28;20221;-84
2021/07/31 06:07:38;;;;;;;5.35;4.85;;;22.10;75.60;;;22.64;58.77;94400.28;5030587;28;20229;-84
2021/07/31 06:10:07;;;;;;;5.28;4.78;;;22.20;76.40;;;22.71;58.60;94413.31;5030604;28;20651;-85
2021/07/31 06:12:34;;;;;;;6.28;5.47;;;22.30;75.30;;;22.74;58.56;94428.00;5019306;28;20207;-85
2021/07/31 06:15:02;;;;;;;5.47;4.90;;;22.30;75.00;;;22.75;58.55;94425.03;4998396;28;20417;-85
2021/07/31 06:17:29;;;;;;;5.13;4.72;;;22.40;75.00;;;22.78;58.74;94423.72;5014829;28;20678;-84
2021/07/31 06:19:58;;;;;;;5.70;5.20;;;22.50;74.90;;;22.78;58.11;94429.06;4987424;28;20730;-84
2021/07/31 06:22:25;;;;;;;5.90;5.10;;;22.50;74.60;;;22.77;58.05;94425.56;4982298;28;20732;-85
2021/07/31 06:24:52;;;;;;;7.18;5.30;;;22.50;74.40;;;22.78;58.24;94437.84;4998406;28;20300;-86
2021/07/31 06:27:19;;;;;;;5.80;5.20;;;22.60;74.20;;;22.76;58.18;94442.69;5014651;28;20230;-84
2021/07/31 06:29:47;;;;;;;5.15;4.63;;;22.50;74.20;;;22.77;58.03;94438.16;5025016;28;20222;-85
2021/07/31 06:32:14;;;;;;;5.22;4.72;;;22.50;74.30;;;22.83;57.88;94443.16;4998477;28;20275;-86
2021/07/31 06:34:41;;;;;;;4.90;4.38;;;22.60;74.30;;;22.89;57.99;94445.78;4997826;28;20215;-85
2021/07/31 06:37:09;;;;;;;5.88;5.03;;;22.60;74.30;;;22.92;57.74;94450.56;4998814;28;20424;-86
2021/07/31 06:39:36;;;;;;;6.18;5.07;;;22.70;74.10;;;22.92;57.49;94443.34;4982910;28;20307;-85
2021/07/31 06:42:05;;;;;;;5.20;4.70;;;22.70;74.00;;;22.98;58.09;94441.44;5033391;28;20253;-86
2021/07/31 06:44:32;;;;;;;5.40;4.90;;;22.70;74.20;;;23.07;57.73;94449.63;5033717;28;20299;-85
2021/07/31 06:47:00;;;;;;;5.47;4.97;;;22.70;74.20;;;23.15;57.93;94454.38;5013807;28;20242;-84
2021/07/31 06:49:27;;;;;;;7.68;5.03;;;22.80;74.30;;;23.23;57.29;94444.97;4999619;28;20193;-85
2021/07/31 06:51:55;;;;;;;6.47;5.30;;;22.90;74.00;;;23.29;57.45;94454.53;5014056;28;20201;-84
2021/07/31 06:54:22;;;;;;;5.03;4.53;;;22.90;74.10;;;23.36;57.30;94459.56;4998031;28;20236;-84
2021/07/31 06:56:50;;;;;;;5.32;4.57;;;22.90;74.00;;;23.44;57.41;94465.06;4998549;28;20270;-84
2021/07/31 06:59:17;;;;;;;7.43;4.82;;;23.00;74.10;;;23.48;57.07;94457.28;5013840;28;20279;-84
2021/07/31 07:01:44;;;;;;;5.45;4.50;;;23.10;73.90;;;23.52;57.19;94462.88;5033426;28;20223;-84
2021/07/31 07:04:12;;;;;;;5.40;4.90;;;23.10;73.70;;;23.55;57.17;94476.47;5026193;28;20275;-85
2021/07/31 07:06:41;;;;;;;6.30;5.25;;;23.20;73.90;;;23.57;56.58;94471.66;4997608;28;20206;-84
2021/07/31 07:09:09;;;;;;;6.63;5.63;;;23.20;73.40;;;23.55;56.85;94470.34;5016793;28;20269;-84
2021/07/31 07:11:37;;;;;;;4.93;4.43;;;23.20;73.40;;;23.54;56.97;94458.03;5016920;28;20258;-85
2021/07/31 07:14:04;;;;;;;5.30;4.80;;;23.20;73.40;;;23.62;57.28;94466.22;5033596;28;20203;-85
2021/07/31 07:16:32;;;;;;;4.80;4.35;;;23.30;73.90;;;23.74;57.18;94456.97;5027344;28;20299;-86
2021/07/31 07:19:00;;;;;;;5.45;4.47;;;23.30;74.10;;;23.92;57.15;94466.94;5034573;28;20199;-85
2021/07/31 07:21:27;;;;;;;5.10;4.65;;;23.40;74.00;;;24.08;56.70;94459.53;5017264;28;20694;-85
2021/07/31 07:23:54;;;;;;;6.00;4.90;;;23.50;73.90;;;24.22;56.73;94470.34;5033359;28;20196;-85
2021/07/31 07:26:21;;;;;;;6.00;5.07;;;23.60;73.90;;;24.35;56.39;94462.66;5008578;28;20239;-84
2021/07/31 07:28:48;;;;;;;5.03;4.63;;;23.70;73.70;;;24.46;56.29;94475.63;5033029;28;20264;-85
2021/07/31 07:31:15;;;;;;;5.70;5.20;;;23.80;74.40;;;24.55;55.54;94472.28;5016436;28;20223;-85
2021/07/31 07:33:43;;;;;;;5.63;4.97;;;23.90;73.20;;;24.58;55.57;94477.06;5015688;28;20195;-85
2021/07/31 07:36:17;;;;;;;6.93;4.75;;;24.00;73.10;;;24.61;55.59;94473.81;5008904;28;20293;-86
2021/07/31 07:38:45;;;;;;;6.45;5.35;;;24.10;72.70;;;24.58;55.29;94464.47;5014996;28;20200;-85
2021/07/31 07:41:14;;;;;;;6.05;5.45;;;24.20;72.70;;;24.63;55.48;94471.63;4998866;28;20621;-85
2021/07/31 07:43:43;;;;;;;5.95;5.35;;;24.20;72.80;;;24.75;55.83;94468.53;5012279;28;20715;-85
2021/07/31 07:46:16;;;;;;;5.60;4.93;;;24.20;72.90;;;24.88;55.27;94458.94;4996781;28;20226;-84
2021/07/31 07:48:45;;;;;;;7.65;5.90;;;24.30;72.70;;;24.99;54.62;94459.56;5012556;28;20201;-85
2021/07/31 07:51:13;;;;;;;6.05;5.45;;;24.40;72.30;;;25.03;54.15;94457.88;5032819;28;20300;-84
2021/07/31 07:53:40;;;;;;;6.45;5.45;;;24.50;71.90;;;25.09;54.37;94451.31;5003274;28;20210;-84
2021/07/31 07:56:07;;;;;;;6.63;5.45;;;24.50;72.10;;;25.18;54.53;94456.81;5013942;28;20315;-85
2021/07/31 07:58:34;;;;;;;5.50;5.00;;;24.60;71.80;;;25.26;54.36;94454.22;5015591;28;20215;-85
2021/07/31 08:01:04;;;;;;;5.90;5.28;;;24.70;72.00;;;25.35;54.21;94464.28;5032316;28;20220;-85
2021/07/31 08:03:33;;;;;;;5.00;4.60;;;24.70;71.50;;;25.38;54.48;94458.38;5014217;28;20231;-84
2021/07/31 08:06:00;;;;;;;5.15;4.65;;;24.80;71.70;;;25.44;54.45;94462.56;4999600;28;20217;-85
2021/07/31 08:08:28;;;;;;;5.88;5.25;;;24.90;71.90;;;25.44;52.92;94464.41;5021269;28;20599;-84
2021/07/31 08:10:55;;;;;;;6.20;5.60;;;24.90;70.80;;;25.34;52.59;94460.00;5006236;28;20220;-85
2021/07/31 08:13:23;;;;;;;5.60;5.00;;;24.90;70.20;;;25.25;53.25;94455.34;5035760;28;20752;-86
2021/07/31 08:15:50;;;;;;;5.60;5.10;;;25.00;70.60;;;25.23;53.71;94464.75;4999436;28;20220;-85
2021/07/31 08:18:17;;;;;;;6.50;5.65;;;24.90;70.90;;;25.22;52.83;94465.88;5017314;28;20199;-86
2021/07/31 08:20:44;;;;;;;6.05;5.45;;;24.90;70.30;;;25.23;53.26;94462.88;5025151;28;20220;-85
2021/07/31 08:23:11;;;;;;;5.53;5.00;;;24.90;70.50;;;25.33;54.08;94463.78;5032335;28;20254;-86
2021/07/31 08:25:38;;;;;;;5.28;4.78;;;24.90;70.90;;;25.41;53.62;94458.56;5031034;28;20253;-86
2021/07/31 08:28:06;;;;;;;6.18;5.57;;;24.90;71.10;;;25.57;53.41;94463.63;5046197;28;20211;-86
2021/07/31 08:30:33;;;;;;;5.97;4.80;;;25.00;71.30;;;25.73;53.84;94466.81;5023746;28;20230;-85
2021/07/31 08:33:01;;;;;;;5.38;4.88;;;25.10;71.40;;;25.86;53.31;94462.53;5024692;28;20208;-86
2021/07/31 08:35:31;;;;;;;7.00;4.97;;;25.20;71.20;;;26.03;53.09;94467.31;4995919;28;20715;-85
2021/07/31 08:37:58;;;;;;;6.40;5.80;;;25.30;70.70;;;26.12;52.44;94468.22;5015933;28;20249;-85
2021/07/31 08:40:26;;;;;;;6.07;5.43;;;25.40;70.50;;;26.17;51.58;94472.69;5024808;28;20220;-86
2021/07/31 08:42:53;;;;;;;6.10;5.28;;;25.50;69.70;;;26.18;52.25;94468.91;4979461;28;20196;-85
2021/07/31 08:45:21;;;;;;;8.15;5.60;;;25.60;69.90;;;26.17;50.53;94472.69;4983355;28;20220;-85
2021/07/31 08:47:50;;;;;;;6.22;5.22;;;25.70;69.00;;;26.23;50.90;94470.69;4998386;28;20188;-87
2021/07/31 08:50:22;;;;;;;5.90;5.25;;;25.70;69.00;;;26.41;51.69;94472.44;5031736;28;20698;-85
2021/07/31 08:52:51;;;;;;;5.32;4.82;;;25.70;69.70;;;26.61;51.87;94475.75;5016247;28;20203;-86
2021/07/31 08:55:18;;;;;;;6.10;4.85;;;25.90;69.80;;;26.74;51.08;94488.34;5029238;28;20241;-86
2021/07/31 08:57:45;;;;;;;6.47;5.30;;;25.90;69.60;;;26.85;50.59;94475.47;5011778;28;20201;-86
2021/07/31 09:00:13;;;;;;;5.40;4.70;;;26.10;68.80;;;26.89;50.81;94481.06;5027984;28;20632;-86
2021/07/31 09:02:48;;;;;;;5.50;5.00;;;26.20;68.80;;;26.89;50.87;94481.88;5012957;28;20231;-85
2021/07/31 09:05:37;;;;;;;5.80;5.22;;;26.30;68.10;;;26.91;50.89;94484.25;5012117;28;20236;-85
2021/07/31 09:08:06;;;;;;;5.82;5.28;;;26.40;68.20;;;26.89;49.74;94481.06;5012134;28;20625;-85
2021/07/31 09:10:45;;;;;;;5.38;4.88;;;26.40;68.00;;;26.87;50.32;94478.69;5026445;28;20227;-85
2021/07/31 09:13:18;;;;;;;5.97;5.38;;;26.40;68.10;;;26.92;50.02;94481.22;5013991;28;20748;-85
2021/07/31 09:15:50;;;;;;;5.88;5.10;;;26.50;67.70;;;26.95;50.52;94483.31;5014343;28;20224;-86
2021/07/31 09:18:26;;;;;;;5.45;4.95;;;26.50;68.20;;;27.04;49.61;94482.56;4998960;28;20195;-86
2021/07/31 09:21:15;;;;;;;5.93;4.95;;;26.50;67.50;;;27.12;50.67;94476.44;5027933;28;20273;-85
2021/07/31 09:23:52;;;;;;;5.10;4.63;;;26.60;68.30;;;27.19;49.61;94471.44;4999148;28;20192;-85
2021/07/31 09:26:23;;;;;;;5.78;5.07;;;26.60;67.30;;;27.25;49.81;94474.78;4997135;28;20221;-85
2021/07/31 09:29:09;;;;;;;6.35;5.68;;;26.70;67.60;;;27.24;49.13;94475.88;5010477;28;20394;-85
2021/07/31 09:31:40;;;;;;;5.68;5.15;;;26.70;66.90;;;27.25;48.96;94486.34;4996348;28;20199;-85
2021/07/31 09:34:08;;;;;;;5.50;5.00;;;26.80;66.80;;;27.23;49.77;94472.38;5031103;28;20254;-86
2021/07/31 09:36:38;;;;;;;5.72;5.03;;;26.80;67.30;;;27.31;49.32;94473.56;5028171;28;20192;-85
2021/07/31 09:39:08;;;;;;;5.30;4.80;;;26.80;67.30;;;27.38;49.98;94470.41;5014478;28;20195;-86
2021/07/31 09:41:41;;;;;;;5.53;5.03;;;26.80;67.60;;;27.45;49.73;94468.09;5012584;28;20220;-85
2021/07/31 09:44:18;;;;;;;5.20;4.70;;;26.90;67.70;;;27.51;49.59;94466.84;4998519;28;20621;-85
2021/07/31 09:46:51;;;;;;;5.55;5.05;;;26.90;67.30;;;27.67;49.55;94458.38;5014826;28;20203;-85
2021/07/31 09:49:22;;;;;;;5.53;4.90;;;27.00;67.50;;;27.89;49.70;94460.16;5029194;28;20650;-86
2021/07/31 09:51:55;;;;;;;5.63;4.80;;;27.00;67.80;;;28.15;49.60;94456.75;4999098;28;20201;-86
2021/07/31 09:54:22;;;;;;;5.13;4.72;;;27.20;68.70;;;28.30;48.92;94444.75;5018258;28;20192;-86
2021/07/31 09:56:55;;;;;;;6.68;4.70;;;27.30;67.50;;;28.35;48.95;94445.34;5011728;28;20211;-85
2021/07/31 09:59:23;;;;;;;5.53;4.80;;;27.50;67.10;;;28.29;47.93;94452.03;5002359;28;20184;-85
2021/07/31 10:02:03;;;;;;;5.60;4.95;;;27.60;66.40;;;28.11;48.15;94446.63;5015732;28;20698;-85
2021/07/31 10:04:34;;;;;;;5.80;5.30;;;27.60;65.80;;;27.98;48.25;94454.78;5033025;28;20329;-85
2021/07/31 10:07:03;;;;;;;5.40;4.90;;;27.60;65.60;;;27.93;48.03;94450.38;5031977;28;20207;-85
2021/07/31 10:09:32;;;;;;;5.30;4.80;;;27.50;65.90;;;27.97;47.91;94451.31;5031774;28;20220;-86
2021/07/31 10:11:59;;;;;;;5.53;4.97;;;27.50;66.10;;;28.08;48.59;94449.94;5033371;28;20197;-86
2021/07/31 10:14:27;;;;;;;5.10;4.60;;;27.50;66.10;;;28.20;48.06;94438.53;4992496;28;20255;-84
2021/07/31 10:16:55;;;;;;;5.50;5.00;;;27.50;66.10;;;28.22;47.43;94439.03;5015330;28;20239;-84
2021/07/31 10:19:23;;;;;;;6.00;5.30;;;27.50;65.90;;;28.35;48.45;94436.50;5015421;28;20293;-84
2021/07/31 10:21:58;;;;;;;5.57;5.07;;;27.60;66.80;;;28.47;47.52;94444.75;5027686;28;20224;-85
2021/07/31 10:24:28;;;;;;;5.70;5.10;;;27.70;65.80;;;28.58;47.60;94442.53;5017069;28;20207;-83
2021/07/31 10:27:15;;;;;;;5.45;4.90;;;27.80;66.30;;;28.75;47.80;94453.31;4998357;28;20739;-84
2021/07/31 10:29:43;;;;;;;5.95;5.35;;;27.90;66.10;;;28.85;47.42;94454.13;5019765;28;20216;-86
2021/07/31 10:32:37;;;;;;;5.22;4.72;;;28.00;65.60;;;28.83;45.81;94462.53;5038074;28;20232;-85